sensor_id;sensor_type;location;lat;lon;timestamp;P1;durP1;ratioP1;P2;durP2;ratioP2
15567;SDS011;7885;42.596;23.044;2023-12-28T00:01:26;62.93;;;39.53;;
15567;SDS011;7885;42.596;23.044;2023-12-28T00:03:53;56.97;;;37.13;;
15567;SDS011;7885;42.596;23.044;2023-12-28T00:06:19;64.13;;;40.43;;
15567;SDS011;7885;42.596;23.044;2023-12-28T00:08:46;63.07;;;42.97;;
15567;SDS011;7885;42.596;23.044;2023-12-28T00:11:13;81.43;;;52.73;;
15567;SDS011;7885;42.596;23.044;2023-12-28T00:13:42;64.70;;;40.70;;
15567;SDS011;7885;42.596;23.044;2023-12-28T00:16:08;62.43;;;42.47;;
15567;SDS011;7885;42.596;23.044;2023-12-28T00:18:35;33.20;;;20.20;;
15567;SDS011;7885;42.596;23.044;2023-12-28T00:21:02;43.53;;;28.23;;
15567;SDS011;7885;42.596;23.044;2023-12-28T00:23:29;41.43;;;25.00;;
15567;SDS011;7885;42.596;23.044;2023-12-28T00:25:55;45.67;;;31.07;;
15567;SDS011;7885;42.596;23.044;2023-12-28T00:28:22;33.47;;;22.70;;
15567;SDS011;7885;42.596;23.044;2023-12-28T00:30:50;48.10;;;26.90;;
15567;SDS011;7885;42.596;23.044;2023-12-28T00:33:17;49.97;;;33.20;;
15567;SDS011;7885;42.596;23.044;2023-12-28T00:35:43;54.23;;;34.67;;
15567;SDS011;7885;42.596;23.044;2023-12-28T00:38:10;49.57;;;32.67;;
15567;SDS011;7885;42.596;23.044;2023-12-28T00:40:37;38.13;;;25.93;;
15567;SDS011;7885;42.596;23.044;2023-12-28T00:43:03;46.33;;;27.97;;
15567;SDS011;7885;42.596;23.044;2023-12-28T00:45:30;41.07;;;26.97;;
15567;SDS011;7885;42.596;23.044;2023-12-28T00:47:58;47.03;;;30.57;;
15567;SDS011;7885;42.596;23.044;2023-12-28T00:50:25;35.73;;;23.13;;
15567;SDS011;7885;42.596;23.044;2023-12-28T00:52:52;30.27;;;19.77;;
15567;SDS011;7885;42.596;23.044;2023-12-28T00:55:19;38.27;;;24.37;;
15567;SDS011;7885;42.596;23.044;2023-12-28T00:57:45;40.37;;;25.07;;
15567;SDS011;7885;42.596;23.044;2023-12-28T01:00:12;47.17;;;33.70;;
15567;SDS011;7885;42.596;23.044;2023-12-28T01:02:39;45.83;;;30.27;;
15567;SDS011;7885;42.596;23.044;2023-12-28T01:05:08;48.40;;;32.50;;
15567;SDS011;7885;42.596;23.044;2023-12-28T01:07:35;52.37;;;33.33;;
15567;SDS011;7885;42.596;23.044;2023-12-28T01:16:45;43.97;;;29.17;;
15567;SDS011;7885;42.596;23.044;2023-12-28T01:19:11;41.67;;;28.80;;
15567;SDS011;7885;42.596;23.044;2023-12-28T01:21:39;48.27;;;31.53;;
15567;SDS011;7885;42.596;23.044;2023-12-28T01:24:06;37.73;;;24.67;;
15567;SDS011;7885;42.596;23.044;2023-12-28T01:26:33;51.97;;;34.13;;
15567;SDS011;7885;42.596;23.044;2023-12-28T01:29:00;51.83;;;35.10;;
15567;SDS011;7885;42.596;23.044;2023-12-28T01:38:12;76.10;;;45.60;;
15567;SDS011;7885;42.596;23.044;2023-12-28T01:40:43;73.57;;;43.60;;
15567;SDS011;7885;42.596;23.044;2023-12-28T01:43:10;78.40;;;48.10;;
15567;SDS011;7885;42.596;23.044;2023-12-28T01:45:36;68.03;;;43.67;;
15567;SDS011;7885;42.596;23.044;2023-12-28T01:48:03;38.77;;;27.53;;
15567;SDS011;7885;42.596;23.044;2023-12-28T01:50:30;32.13;;;21.10;;
15567;SDS011;7885;42.596;23.044;2023-12-28T01:52:58;33.17;;;21.50;;
15567;SDS011;7885;42.596;23.044;2023-12-28T02:19:03;68.67;;;42.13;;
15567;SDS011;7885;42.596;23.044;2023-12-28T02:21:41;48.07;;;34.73;;
15567;SDS011;7885;42.596;23.044;2023-12-28T02:24:07;46.80;;;33.60;;
15567;SDS011;7885;42.596;23.044;2023-12-28T02:26:35;52.50;;;34.93;;
15567;SDS011;7885;42.596;23.044;2023-12-28T02:29:02;32.97;;;22.73;;
15567;SDS011;7885;42.596;23.044;2023-12-28T02:31:32;42.77;;;29.33;;
15567;SDS011;7885;42.596;23.044;2023-12-28T02:34:04;49.77;;;34.47;;
15567;SDS011;7885;42.596;23.044;2023-12-28T02:36:35;58.07;;;36.83;;
15567;SDS011;7885;42.596;23.044;2023-12-28T02:39:06;63.30;;;40.03;;
15567;SDS011;7885;42.596;23.044;2023-12-28T02:41:37;59.83;;;38.40;;
15567;SDS011;7885;42.596;23.044;2023-12-28T02:44:04;57.17;;;36.87;;
15567;SDS011;7885;42.596;23.044;2023-12-28T02:46:31;60.53;;;39.10;;
15567;SDS011;7885;42.596;23.044;2023-12-28T02:48:58;63.53;;;42.43;;
15567;SDS011;7885;42.596;23.044;2023-12-28T02:51:25;65.60;;;41.17;;
15567;SDS011;7885;42.596;23.044;2023-12-28T02:53:51;59.07;;;36.90;;
15567;SDS011;7885;42.596;23.044;2023-12-28T02:56:18;52.80;;;34.53;;
15567;SDS011;7885;42.596;23.044;2023-12-28T02:58:46;43.17;;;26.00;;
15567;SDS011;7885;42.596;23.044;2023-12-28T03:01:13;24.23;;;14.77;;
15567;SDS011;7885;42.596;23.044;2023-12-28T03:03:39;35.20;;;22.73;;
15567;SDS011;7885;42.596;23.044;2023-12-28T03:06:06;48.00;;;28.00;;
15567;SDS011;7885;42.596;23.044;2023-12-28T03:08:33;37.57;;;22.60;;
15567;SDS011;7885;42.596;23.044;2023-12-28T03:11:00;43.13;;;26.23;;
15567;SDS011;7885;42.596;23.044;2023-12-28T03:13:26;54.10;;;32.47;;
15567;SDS011;7885;42.596;23.044;2023-12-28T03:22:38;70.67;;;45.73;;
15567;SDS011;7885;42.596;23.044;2023-12-28T03:25:06;67.87;;;43.63;;
15567;SDS011;7885;42.596;23.044;2023-12-28T03:27:33;67.27;;;41.13;;
15567;SDS011;7885;42.596;23.044;2023-12-28T03:29:59;69.80;;;41.70;;
15567;SDS011;7885;42.596;23.044;2023-12-28T03:32:26;64.20;;;39.03;;
15567;SDS011;7885;42.596;23.044;2023-12-28T03:34:53;58.40;;;36.53;;
15567;SDS011;7885;42.596;23.044;2023-12-28T03:37:19;56.57;;;38.20;;
15567;SDS011;7885;42.596;23.044;2023-12-28T03:39:48;52.87;;;35.23;;
15567;SDS011;7885;42.596;23.044;2023-12-28T03:42:14;59.37;;;36.90;;
15567;SDS011;7885;42.596;23.044;2023-12-28T03:44:41;67.67;;;39.37;;
15567;SDS011;7885;42.596;23.044;2023-12-28T03:47:08;64.13;;;40.87;;
15567;SDS011;7885;42.596;23.044;2023-12-28T03:49:35;52.70;;;33.47;;
15567;SDS011;7885;42.596;23.044;2023-12-28T03:52:01;55.03;;;33.17;;
15567;SDS011;7885;42.596;23.044;2023-12-28T03:54:28;60.57;;;38.70;;
15567;SDS011;7885;42.596;23.044;2023-12-28T03:56:56;52.27;;;32.47;;
15567;SDS011;7885;42.596;23.044;2023-12-28T03:59:23;52.90;;;33.80;;
15567;SDS011;7885;42.596;23.044;2023-12-28T04:01:50;53.67;;;35.73;;
15567;SDS011;7885;42.596;23.044;2023-12-28T04:04:17;69.80;;;39.93;;
15567;SDS011;7885;42.596;23.044;2023-12-28T04:06:43;86.20;;;48.97;;
15567;SDS011;7885;42.596;23.044;2023-12-28T04:09:11;98.27;;;32.83;;
15567;SDS011;7885;42.596;23.044;2023-12-28T04:11:37;69.20;;;36.20;;
15567;SDS011;7885;42.596;23.044;2023-12-28T04:14:05;87.47;;;33.00;;
15567;SDS011;7885;42.596;23.044;2023-12-28T04:16:32;61.73;;;30.17;;
15567;SDS011;7885;42.596;23.044;2023-12-28T04:18:59;112.77;;;31.47;;
15567;SDS011;7885;42.596;23.044;2023-12-28T04:21:26;141.60;;;30.47;;
15567;SDS011;7885;42.596;23.044;2023-12-28T04:23:52;203.53;;;30.73;;
15567;SDS011;7885;42.596;23.044;2023-12-28T04:26:19;91.47;;;29.13;;
15567;SDS011;7885;42.596;23.044;2023-12-28T04:28:46;138.17;;;31.53;;
15567;SDS011;7885;42.596;23.044;2023-12-28T04:31:14;112.60;;;28.87;;
15567;SDS011;7885;42.596;23.044;2023-12-28T04:33:41;71.97;;;25.83;;
15567;SDS011;7885;42.596;23.044;2023-12-28T04:39:29;50.73;;;27.00;;
15567;SDS011;7885;42.596;23.044;2023-12-28T04:41:56;96.10;;;27.77;;
15567;SDS011;7885;42.596;23.044;2023-12-28T04:44:22;66.33;;;27.43;;
15567;SDS011;7885;42.596;23.044;2023-12-28T04:46:51;61.53;;;29.03;;
15567;SDS011;7885;42.596;23.044;2023-12-28T04:49:18;86.87;;;31.13;;
15567;SDS011;7885;42.596;23.044;2023-12-28T04:51:45;67.03;;;31.80;;
15567;SDS011;7885;42.596;23.044;2023-12-28T04:54:12;111.47;;;34.13;;
15567;SDS011;7885;42.596;23.044;2023-12-28T05:00:00;144.17;;;31.17;;
15567;SDS011;7885;42.596;23.044;2023-12-28T05:02:28;130.30;;;31.77;;
15567;SDS011;7885;42.596;23.044;2023-12-28T05:04:55;102.83;;;26.73;;
15567;SDS011;7885;42.596;23.044;2023-12-28T05:07:22;113.10;;;28.17;;
15567;SDS011;7885;42.596;23.044;2023-12-28T05:09:48;99.73;;;27.63;;
15567;SDS011;7885;42.596;23.044;2023-12-28T05:12:15;169.67;;;27.60;;
15567;SDS011;7885;42.596;23.044;2023-12-28T05:14:42;256.87;;;30.67;;
15567;SDS011;7885;42.596;23.044;2023-12-28T05:20:32;309.93;;;28.87;;
15567;SDS011;7885;42.596;23.044;2023-12-28T05:22:58;307.57;;;31.87;;
15567;SDS011;7885;42.596;23.044;2023-12-28T05:25:25;225.97;;;31.10;;
15567;SDS011;7885;42.596;23.044;2023-12-28T05:27:52;125.00;;;29.23;;
15567;SDS011;7885;42.596;23.044;2023-12-28T05:33:05;101.73;;;29.43;;
15567;SDS011;7885;42.596;23.044;2023-12-28T05:35:33;107.63;;;30.73;;
15567;SDS011;7885;42.596;23.044;2023-12-28T05:38:00;123.27;;;30.33;;
15567;SDS011;7885;42.596;23.044;2023-12-28T05:40:26;178.30;;;34.00;;
15567;SDS011;7885;42.596;23.044;2023-12-28T05:42:53;203.50;;;33.93;;
15567;SDS011;7885;42.596;23.044;2023-12-28T05:45:20;120.30;;;32.43;;
15567;SDS011;7885;42.596;23.044;2023-12-28T05:47:46;151.73;;;33.10;;
15567;SDS011;7885;42.596;23.044;2023-12-28T05:50:13;105.73;;;30.27;;
15567;SDS011;7885;42.596;23.044;2023-12-28T05:52:41;135.57;;;37.10;;
15567;SDS011;7885;42.596;23.044;2023-12-28T05:55:08;128.10;;;35.40;;
15567;SDS011;7885;42.596;23.044;2023-12-28T05:57:34;243.87;;;38.63;;
15567;SDS011;7885;42.596;23.044;2023-12-28T06:00:00;159.70;;;36.50;;
15567;SDS011;7885;42.596;23.044;2023-12-28T06:02:29;83.77;;;37.07;;
15567;SDS011;7885;42.596;23.044;2023-12-28T06:04:56;107.90;;;37.17;;
15567;SDS011;7885;42.596;23.044;2023-12-28T06:07:23;129.87;;;37.00;;
15567;SDS011;7885;42.596;23.044;2023-12-28T06:09:52;152.97;;;36.80;;
15567;SDS011;7885;42.596;23.044;2023-12-28T06:12:19;138.13;;;36.23;;
15567;SDS011;7885;42.596;23.044;2023-12-28T06:14:45;97.83;;;35.97;;
15567;SDS011;7885;42.596;23.044;2023-12-28T06:20:34;100.00;;;35.30;;
15567;SDS011;7885;42.596;23.044;2023-12-28T06:23:01;111.20;;;35.37;;
15567;SDS011;7885;42.596;23.044;2023-12-28T06:25:29;120.27;;;36.97;;
15567;SDS011;7885;42.596;23.044;2023-12-28T06:27:56;122.03;;;37.47;;
15567;SDS011;7885;42.596;23.044;2023-12-28T06:30:22;134.50;;;38.23;;
15567;SDS011;7885;42.596;23.044;2023-12-28T06:32:49;178.37;;;38.10;;
15567;SDS011;7885;42.596;23.044;2023-12-28T06:35:16;149.43;;;36.00;;
15567;SDS011;7885;42.596;23.044;2023-12-28T06:37:42;189.07;;;36.53;;
15567;SDS011;7885;42.596;23.044;2023-12-28T06:40:10;216.07;;;35.67;;
15567;SDS011;7885;42.596;23.044;2023-12-28T06:42:38;97.73;;;36.40;;
15567;SDS011;7885;42.596;23.044;2023-12-28T06:45:08;89.37;;;35.27;;
15567;SDS011;7885;42.596;23.044;2023-12-28T06:47:35;77.00;;;39.30;;
15567;SDS011;7885;42.596;23.044;2023-12-28T06:50:03;98.63;;;42.90;;
15567;SDS011;7885;42.596;23.044;2023-12-28T06:52:30;101.10;;;46.47;;
15567;SDS011;7885;42.596;23.044;2023-12-28T06:54:56;100.23;;;46.87;;
15567;SDS011;7885;42.596;23.044;2023-12-28T06:57:23;95.57;;;46.90;;
15567;SDS011;7885;42.596;23.044;2023-12-28T06:59:51;146.63;;;52.83;;
15567;SDS011;7885;42.596;23.044;2023-12-28T07:02:19;124.53;;;48.67;;
15567;SDS011;7885;42.596;23.044;2023-12-28T07:04:46;139.30;;;44.33;;
15567;SDS011;7885;42.596;23.044;2023-12-28T07:07:12;103.33;;;43.07;;
15567;SDS011;7885;42.596;23.044;2023-12-28T07:09:39;111.60;;;42.83;;
15567;SDS011;7885;42.596;23.044;2023-12-28T07:12:06;114.20;;;44.63;;
15567;SDS011;7885;42.596;23.044;2023-12-28T07:14:33;99.17;;;45.83;;
15567;SDS011;7885;42.596;23.044;2023-12-28T07:27:08;183.67;;;41.93;;
15567;SDS011;7885;42.596;23.044;2023-12-28T07:29:35;133.13;;;44.50;;
15567;SDS011;7885;42.596;23.044;2023-12-28T07:32:01;147.10;;;43.00;;
15567;SDS011;7885;42.596;23.044;2023-12-28T07:34:29;116.93;;;42.80;;
15567;SDS011;7885;42.596;23.044;2023-12-28T07:36:56;106.93;;;43.53;;
15567;SDS011;7885;42.596;23.044;2023-12-28T07:39:22;109.00;;;41.60;;
15567;SDS011;7885;42.596;23.044;2023-12-28T07:41:49;87.90;;;40.53;;
15567;SDS011;7885;42.596;23.044;2023-12-28T07:44:17;63.93;;;36.13;;
15567;SDS011;7885;42.596;23.044;2023-12-28T07:46:44;155.10;;;32.93;;
15567;SDS011;7885;42.596;23.044;2023-12-28T07:49:11;82.50;;;33.77;;
15567;SDS011;7885;42.596;23.044;2023-12-28T07:51:37;77.23;;;34.60;;
15567;SDS011;7885;42.596;23.044;2023-12-28T07:54:04;102.80;;;33.90;;
15567;SDS011;7885;42.596;23.044;2023-12-28T07:56:31;82.27;;;34.03;;
15567;SDS011;7885;42.596;23.044;2023-12-28T07:58:57;54.87;;;32.60;;
15567;SDS011;7885;42.596;23.044;2023-12-28T08:01:25;65.63;;;34.87;;
15567;SDS011;7885;42.596;23.044;2023-12-28T08:03:52;70.77;;;34.03;;
15567;SDS011;7885;42.596;23.044;2023-12-28T08:06:19;56.57;;;30.10;;
15567;SDS011;7885;42.596;23.044;2023-12-28T08:08:46;55.97;;;32.90;;
15567;SDS011;7885;42.596;23.044;2023-12-28T08:11:13;46.80;;;29.33;;
15567;SDS011;7885;42.596;23.044;2023-12-28T08:13:39;46.60;;;28.93;;
15567;SDS011;7885;42.596;23.044;2023-12-28T08:19:29;80.03;;;35.57;;
15567;SDS011;7885;42.596;23.044;2023-12-28T08:21:56;52.73;;;31.37;;
15567;SDS011;7885;42.596;23.044;2023-12-28T08:24:23;38.67;;;26.50;;
15567;SDS011;7885;42.596;23.044;2023-12-28T08:26:50;42.00;;;28.47;;
15567;SDS011;7885;42.596;23.044;2023-12-28T08:29:18;33.23;;;24.40;;
15567;SDS011;7885;42.596;23.044;2023-12-28T08:31:45;40.47;;;29.17;;
15567;SDS011;7885;42.596;23.044;2023-12-28T08:34:11;37.70;;;27.40;;
15567;SDS011;7885;42.596;23.044;2023-12-28T08:36:39;39.93;;;28.33;;
15567;SDS011;7885;42.596;23.044;2023-12-28T08:39:06;44.17;;;30.60;;
15567;SDS011;7885;42.596;23.044;2023-12-28T08:41:33;47.10;;;33.40;;
15567;SDS011;7885;42.596;23.044;2023-12-28T08:47:21;48.53;;;37.47;;
15567;SDS011;7885;42.596;23.044;2023-12-28T08:49:49;46.47;;;39.03;;
15567;SDS011;7885;42.596;23.044;2023-12-28T08:52:17;44.83;;;36.10;;
15567;SDS011;7885;42.596;23.044;2023-12-28T08:54:44;40.97;;;34.30;;
15567;SDS011;7885;42.596;23.044;2023-12-28T08:57:11;36.67;;;30.27;;
15567;SDS011;7885;42.596;23.044;2023-12-28T08:59:39;32.60;;;28.97;;
15567;SDS011;7885;42.596;23.044;2023-12-28T09:02:06;29.30;;;24.83;;
15567;SDS011;7885;42.596;23.044;2023-12-28T09:04:33;28.80;;;25.60;;
15567;SDS011;7885;42.596;23.044;2023-12-28T09:07:00;34.03;;;27.13;;
15567;SDS011;7885;42.596;23.044;2023-12-28T09:19:04;24.53;;;21.60;;
15567;SDS011;7885;42.596;23.044;2023-12-28T09:21:31;23.60;;;21.10;;
15567;SDS011;7885;42.596;23.044;2023-12-28T09:23:57;23.47;;;21.00;;
15567;SDS011;7885;42.596;23.044;2023-12-28T09:26:24;28.30;;;25.37;;
15567;SDS011;7885;42.596;23.044;2023-12-28T09:28:51;26.23;;;23.43;;
15567;SDS011;7885;42.596;23.044;2023-12-28T09:31:17;26.13;;;22.90;;
15567;SDS011;7885;42.596;23.044;2023-12-28T09:33:45;24.03;;;20.50;;
15567;SDS011;7885;42.596;23.044;2023-12-28T09:36:12;26.23;;;23.10;;
15567;SDS011;7885;42.596;23.044;2023-12-28T09:38:39;22.00;;;19.40;;
15567;SDS011;7885;42.596;23.044;2023-12-28T10:01:18;23.20;;;20.77;;
15567;SDS011;7885;42.596;23.044;2023-12-28T10:03:45;23.65;;;21.10;;
15567;SDS011;7885;42.596;23.044;2023-12-28T10:06:12;23.02;;;20.55;;
15567;SDS011;7885;42.596;23.044;2023-12-28T10:08:44;24.88;;;22.38;;
15567;SDS011;7885;42.596;23.044;2023-12-28T10:11:11;23.10;;;20.70;;
15567;SDS011;7885;42.596;23.044;2023-12-28T10:13:38;22.55;;;20.15;;
15567;SDS011;7885;42.596;23.044;2023-12-28T10:16:07;23.33;;;20.83;;
15567;SDS011;7885;42.596;23.044;2023-12-28T10:32:09;19.98;;;16.40;;
15567;SDS011;7885;42.596;23.044;2023-12-28T10:34:36;20.27;;;18.20;;
15567;SDS011;7885;42.596;23.044;2023-12-28T10:37:03;19.63;;;17.63;;
15567;SDS011;7885;42.596;23.044;2023-12-28T10:42:54;20.02;;;17.92;;
15567;SDS011;7885;42.596;23.044;2023-12-28T10:45:25;18.58;;;16.38;;
15567;SDS011;7885;42.596;23.044;2023-12-28T10:47:58;29.48;;;26.42;;
15567;SDS011;7885;42.596;23.044;2023-12-28T10:50:33;33.85;;;28.02;;
15567;SDS011;7885;42.596;23.044;2023-12-28T10:53:08;43.15;;;33.55;;
15567;SDS011;7885;42.596;23.044;2023-12-28T10:55:46;37.35;;;28.73;;
15567;SDS011;7885;42.596;23.044;2023-12-28T10:58:19;38.05;;;30.15;;
15567;SDS011;7885;42.596;23.044;2023-12-28T11:00:52;36.28;;;30.48;;
15567;SDS011;7885;42.596;23.044;2023-12-28T11:03:30;32.17;;;28.33;;
15567;SDS011;7885;42.596;23.044;2023-12-28T11:06:00;35.55;;;28.52;;
15567;SDS011;7885;42.596;23.044;2023-12-28T11:39:36;24.23;;;19.87;;
15567;SDS011;7885;42.596;23.044;2023-12-28T11:42:05;28.97;;;21.87;;
15567;SDS011;7885;42.596;23.044;2023-12-28T11:44:36;23.33;;;20.07;;
15567;SDS011;7885;42.596;23.044;2023-12-28T11:47:10;25.33;;;20.93;;
15567;SDS011;7885;42.596;23.044;2023-12-28T11:49:37;29.17;;;24.13;;
15567;SDS011;7885;42.596;23.044;2023-12-28T11:52:06;26.53;;;22.83;;
15567;SDS011;7885;42.596;23.044;2023-12-28T12:01:18;23.60;;;20.30;;
15567;SDS011;7885;42.596;23.044;2023-12-28T12:03:44;26.73;;;22.47;;
15567;SDS011;7885;42.596;23.044;2023-12-28T12:06:11;26.43;;;21.53;;
15567;SDS011;7885;42.596;23.044;2023-12-28T12:08:38;26.27;;;21.93;;
15567;SDS011;7885;42.596;23.044;2023-12-28T12:11:05;26.60;;;21.23;;
15567;SDS011;7885;42.596;23.044;2023-12-28T12:13:32;27.93;;;21.27;;
15567;SDS011;7885;42.596;23.044;2023-12-28T12:15:59;24.80;;;21.07;;
15567;SDS011;7885;42.596;23.044;2023-12-28T12:18:32;28.20;;;23.30;;
15567;SDS011;7885;42.596;23.044;2023-12-28T12:20:59;35.03;;;22.63;;
15567;SDS011;7885;42.596;23.044;2023-12-28T12:23:25;24.40;;;20.60;;
15567;SDS011;7885;42.596;23.044;2023-12-28T12:25:52;23.83;;;20.53;;
15567;SDS011;7885;42.596;23.044;2023-12-28T12:28:19;28.67;;;22.77;;
15567;SDS011;7885;42.596;23.044;2023-12-28T12:30:49;26.33;;;22.00;;
15567;SDS011;7885;42.596;23.044;2023-12-28T12:33:20;24.80;;;21.67;;
15567;SDS011;7885;42.596;23.044;2023-12-28T12:35:48;24.57;;;19.77;;
15567;SDS011;7885;42.596;23.044;2023-12-28T12:38:15;23.13;;;18.70;;
15567;SDS011;7885;42.596;23.044;2023-12-28T12:40:42;22.53;;;19.47;;
15567;SDS011;7885;42.596;23.044;2023-12-28T12:43:09;24.67;;;20.90;;
15567;SDS011;7885;42.596;23.044;2023-12-28T12:45:36;26.30;;;21.70;;
15567;SDS011;7885;42.596;23.044;2023-12-28T12:48:03;28.03;;;21.70;;
15567;SDS011;7885;42.596;23.044;2023-12-28T12:50:31;34.47;;;26.97;;
15567;SDS011;7885;42.596;23.044;2023-12-28T12:53:00;25.77;;;21.00;;
15567;SDS011;7885;42.596;23.044;2023-12-28T12:55:27;21.57;;;17.67;;
15567;SDS011;7885;42.596;23.044;2023-12-28T12:57:54;27.37;;;21.70;;
15567;SDS011;7885;42.596;23.044;2023-12-28T13:00:21;21.83;;;19.03;;
15567;SDS011;7885;42.596;23.044;2023-12-28T13:02:49;26.90;;;20.90;;
15567;SDS011;7885;42.596;23.044;2023-12-28T13:05:17;33.23;;;29.63;;
15567;SDS011;7885;42.596;23.044;2023-12-28T13:07:43;25.33;;;22.47;;
15567;SDS011;7885;42.596;23.044;2023-12-28T13:10:12;20.67;;;17.80;;
15567;SDS011;7885;42.596;23.044;2023-12-28T13:12:38;22.17;;;16.60;;
15567;SDS011;7885;42.596;23.044;2023-12-28T13:15:06;22.63;;;15.87;;
15567;SDS011;7885;42.596;23.044;2023-12-28T13:17:34;21.90;;;17.73;;
15567;SDS011;7885;42.596;23.044;2023-12-28T13:20:01;20.93;;;16.83;;
15567;SDS011;7885;42.596;23.044;2023-12-28T13:22:31;40.60;;;28.73;;
15567;SDS011;7885;42.596;23.044;2023-12-28T13:24:57;41.47;;;27.70;;
15567;SDS011;7885;42.596;23.044;2023-12-28T13:27:26;38.00;;;25.27;;
15567;SDS011;7885;42.596;23.044;2023-12-28T13:29:53;30.83;;;25.17;;
15567;SDS011;7885;42.596;23.044;2023-12-28T13:32:20;33.60;;;24.80;;
15567;SDS011;7885;42.596;23.044;2023-12-28T13:34:48;33.57;;;28.80;;
15567;SDS011;7885;42.596;23.044;2023-12-28T13:37:15;7.43;;;6.13;;
15567;SDS011;7885;42.596;23.044;2023-12-28T13:39:42;21.73;;;18.07;;
15567;SDS011;7885;42.596;23.044;2023-12-28T13:42:09;34.53;;;25.47;;
15567;SDS011;7885;42.596;23.044;2023-12-28T13:44:37;15.93;;;9.80;;
15567;SDS011;7885;42.596;23.044;2023-12-28T13:47:04;11.60;;;6.60;;
15567;SDS011;7885;42.596;23.044;2023-12-28T13:52:53;12.00;;;8.13;;
15567;SDS011;7885;42.596;23.044;2023-12-28T13:55:20;11.53;;;8.00;;
15567;SDS011;7885;42.596;23.044;2023-12-28T13:57:47;9.27;;;5.63;;
15567;SDS011;7885;42.596;23.044;2023-12-28T14:00:15;12.27;;;8.43;;
15567;SDS011;7885;42.596;23.044;2023-12-28T14:02:43;11.50;;;8.30;;
15567;SDS011;7885;42.596;23.044;2023-12-28T14:05:10;12.10;;;8.50;;
15567;SDS011;7885;42.596;23.044;2023-12-28T14:07:36;14.27;;;9.83;;
15567;SDS011;7885;42.596;23.044;2023-12-28T14:10:03;13.50;;;10.23;;
15567;SDS011;7885;42.596;23.044;2023-12-28T14:12:31;15.37;;;10.77;;
15567;SDS011;7885;42.596;23.044;2023-12-28T14:14:58;13.13;;;9.70;;
15567;SDS011;7885;42.596;23.044;2023-12-28T14:17:26;19.40;;;12.20;;
15567;SDS011;7885;42.596;23.044;2023-12-28T14:29:58;14.93;;;10.73;;
15567;SDS011;7885;42.596;23.044;2023-12-28T14:32:30;11.57;;;6.93;;
15567;SDS011;7885;42.596;23.044;2023-12-28T14:34:57;6.70;;;5.07;;
15567;SDS011;7885;42.596;23.044;2023-12-28T14:37:24;5.00;;;3.20;;
15567;SDS011;7885;42.596;23.044;2023-12-28T14:46:34;10.23;;;7.60;;
15567;SDS011;7885;42.596;23.044;2023-12-28T14:49:02;18.10;;;11.23;;
15567;SDS011;7885;42.596;23.044;2023-12-28T14:51:29;9.00;;;4.73;;
15567;SDS011;7885;42.596;23.044;2023-12-28T14:53:56;6.67;;;4.10;;
15567;SDS011;7885;42.596;23.044;2023-12-28T14:56:29;13.80;;;8.80;;
15567;SDS011;7885;42.596;23.044;2023-12-28T14:58:55;11.47;;;6.90;;
15567;SDS011;7885;42.596;23.044;2023-12-28T15:01:23;13.27;;;8.63;;
15567;SDS011;7885;42.596;23.044;2023-12-28T15:03:49;11.57;;;8.13;;
15567;SDS011;7885;42.596;23.044;2023-12-28T15:06:17;10.03;;;7.80;;
15567;SDS011;7885;42.596;23.044;2023-12-28T15:08:44;10.80;;;7.63;;
15567;SDS011;7885;42.596;23.044;2023-12-28T15:11:11;14.70;;;8.43;;
15567;SDS011;7885;42.596;23.044;2023-12-28T15:13:38;13.33;;;8.50;;
15567;SDS011;7885;42.596;23.044;2023-12-28T15:16:06;10.97;;;7.53;;
15567;SDS011;7885;42.596;23.044;2023-12-28T15:18:34;8.33;;;6.40;;
15567;SDS011;7885;42.596;23.044;2023-12-28T15:21:02;11.93;;;6.77;;
15567;SDS011;7885;42.596;23.044;2023-12-28T15:23:31;16.50;;;10.77;;
15567;SDS011;7885;42.596;23.044;2023-12-28T15:25:58;34.93;;;11.60;;
15567;SDS011;7885;42.596;23.044;2023-12-28T15:28:24;23.10;;;16.03;;
15567;SDS011;7885;42.596;23.044;2023-12-28T15:30:51;4.27;;;2.47;;
15567;SDS011;7885;42.596;23.044;2023-12-28T15:33:18;6.07;;;3.40;;
15567;SDS011;7885;42.596;23.044;2023-12-28T15:35:45;10.40;;;7.40;;
15567;SDS011;7885;42.596;23.044;2023-12-28T15:38:12;11.43;;;7.00;;
15567;SDS011;7885;42.596;23.044;2023-12-28T15:40:42;9.23;;;5.47;;
15567;SDS011;7885;42.596;23.044;2023-12-28T15:43:08;8.40;;;6.00;;
15567;SDS011;7885;42.596;23.044;2023-12-28T15:45:36;19.63;;;12.40;;
15567;SDS011;7885;42.596;23.044;2023-12-28T15:48:03;16.43;;;12.50;;
15567;SDS011;7885;42.596;23.044;2023-12-28T15:50:30;25.20;;;18.23;;
15567;SDS011;7885;42.596;23.044;2023-12-28T15:52:57;18.27;;;14.10;;
15567;SDS011;7885;42.596;23.044;2023-12-28T15:55:24;25.53;;;18.80;;
15567;SDS011;7885;42.596;23.044;2023-12-28T15:57:52;27.57;;;20.63;;
15567;SDS011;7885;42.596;23.044;2023-12-28T16:00:19;32.53;;;24.27;;
15567;SDS011;7885;42.596;23.044;2023-12-28T16:02:46;41.47;;;29.27;;
15567;SDS011;7885;42.596;23.044;2023-12-28T16:08:34;77.47;;;54.33;;
15567;SDS011;7885;42.596;23.044;2023-12-28T16:11:00;64.87;;;42.93;;
15567;SDS011;7885;42.596;23.044;2023-12-28T16:13:29;74.67;;;46.20;;
15567;SDS011;7885;42.596;23.044;2023-12-28T16:15:56;25.50;;;17.77;;
15567;SDS011;7885;42.596;23.044;2023-12-28T16:18:23;33.30;;;23.30;;
15567;SDS011;7885;42.596;23.044;2023-12-28T16:20:50;33.97;;;24.60;;
15567;SDS011;7885;42.596;23.044;2023-12-28T16:23:17;24.10;;;16.20;;
15567;SDS011;7885;42.596;23.044;2023-12-28T16:50:13;14.37;;;12.33;;
15567;SDS011;7885;42.596;23.044;2023-12-28T16:52:40;19.27;;;14.53;;
15567;SDS011;7885;42.596;23.044;2023-12-28T16:55:07;36.03;;;27.37;;
15567;SDS011;7885;42.596;23.044;2023-12-28T16:57:34;43.50;;;31.10;;
15567;SDS011;7885;42.596;23.044;2023-12-28T17:00:01;50.07;;;35.80;;
15567;SDS011;7885;42.596;23.044;2023-12-28T17:02:29;33.30;;;24.17;;
15567;SDS011;7885;42.596;23.044;2023-12-28T17:04:55;47.60;;;32.93;;
15567;SDS011;7885;42.596;23.044;2023-12-28T17:07:24;36.43;;;24.67;;
15567;SDS011;7885;42.596;23.044;2023-12-28T17:09:51;37.83;;;27.00;;
15567;SDS011;7885;42.596;23.044;2023-12-28T17:12:22;35.90;;;24.53;;
15567;SDS011;7885;42.596;23.044;2023-12-28T17:14:53;26.30;;;18.53;;
15567;SDS011;7885;42.596;23.044;2023-12-28T17:17:22;11.40;;;8.67;;
15567;SDS011;7885;42.596;23.044;2023-12-28T17:19:51;8.47;;;5.67;;
15567;SDS011;7885;42.596;23.044;2023-12-28T17:22:18;9.23;;;6.63;;
15567;SDS011;7885;42.596;23.044;2023-12-28T17:24:51;15.00;;;12.53;;
15567;SDS011;7885;42.596;23.044;2023-12-28T17:27:26;7.70;;;5.60;;
15567;SDS011;7885;42.596;23.044;2023-12-28T17:29:56;10.87;;;7.60;;
15567;SDS011;7885;42.596;23.044;2023-12-28T17:32:28;17.70;;;11.70;;
15567;SDS011;7885;42.596;23.044;2023-12-28T17:34:58;17.30;;;11.60;;
15567;SDS011;7885;42.596;23.044;2023-12-28T17:37:25;18.20;;;12.70;;
15567;SDS011;7885;42.596;23.044;2023-12-28T17:39:55;21.00;;;15.93;;
15567;SDS011;7885;42.596;23.044;2023-12-28T17:42:22;18.37;;;12.27;;
15567;SDS011;7885;42.596;23.044;2023-12-28T17:44:54;123.07;;;75.50;;
15567;SDS011;7885;42.596;23.044;2023-12-28T17:47:26;141.90;;;85.80;;
15567;SDS011;7885;42.596;23.044;2023-12-28T17:49:55;183.27;;;106.97;;
15567;SDS011;7885;42.596;23.044;2023-12-28T17:52:24;133.63;;;89.00;;